CheckWX is a tool to help pilots better visualize weather data.  It is not intended as a substitute for an official pre-flight weather briefing.

04:18:22 UTC

KLAF METAR
Purdue University Airport
Lafayette, Indiana, USA
Current

24 mins ago

KLAF 270354Z AUTO 26003KT 10SM CLR 24/21 A3011 RMK AO2 SLP191 T02390206
Observed
Jun-27 @ 03:54 UTC
Wind
  • 260° at 3 KTS
Visibility
10 SM
Flight Rules
VFR
Cloud Levels
  • Clear skies
Temperature
24°C / 75°F
Dewpoint
21°C / 70°F
Humidity
83%
Altimeter
30.11" Hg
Pressure
1019.62 hPa
Previous

1 hour ago

KLAF 270254Z AUTO 20003KT 10SM CLR 25/20 A3008 RMK AO2 SLP181 T02500200 51010
Observed
Jun-27 @ 02:54 UTC
Wind
  • 200° at 3 KTS
Visibility
10 SM
Flight Rules
VFR
Cloud Levels
  • Clear skies
Temperature
25°C / 77°F
Dewpoint
20°C / 68°F
Humidity
74%
Altimeter
30.08" Hg
Pressure
1018.62 hPa
Previous

2 hours ago

KLAF 270154Z AUTO 20003KT 10SM CLR 26/20 A3008 RMK AO2 SLP181 T02610200
Observed
Jun-27 @ 01:54 UTC
Wind
  • 200° at 3 KTS
Visibility
10 SM
Flight Rules
VFR
Cloud Levels
  • Clear skies
Temperature
26°C / 79°F
Dewpoint
20°C / 68°F
Humidity
70%
Altimeter
30.08" Hg
Pressure
1018.62 hPa